createdAt,value
2023-03-29T00:00:15.703Z,1.20
2023-03-29T00:02:48.424Z,1.30
2023-03-29T00:05:17.870Z,1.30
2023-03-29T00:07:45.918Z,1.50
2023-03-29T00:10:13.866Z,1.30
2023-03-29T00:12:41.773Z,1.20
2023-03-29T00:15:11.808Z,1.50
2023-03-29T00:17:39.509Z,1.40
2023-03-29T00:20:10.128Z,1.37
2023-03-29T00:22:39.914Z,1.47
2023-03-29T00:25:08.184Z,1.30
2023-03-29T00:27:35.729Z,1.27
2023-03-29T00:30:04.096Z,1.13
2023-03-29T00:32:33.820Z,1.40
2023-03-29T00:35:01.925Z,1.30
2023-03-29T00:37:29.790Z,1.40
2023-03-29T00:39:57.580Z,1.53
2023-03-29T00:42:26.075Z,1.30
2023-03-29T00:45:02.065Z,1.17
2023-03-29T00:47:34.193Z,1.50
2023-03-29T00:50:06.147Z,1.37
2023-03-29T00:52:35.588Z,1.40
2023-03-29T00:55:10.080Z,1.50
2023-03-29T00:57:39.892Z,1.40
2023-03-29T01:00:10.079Z,1.33
2023-03-29T01:02:40.779Z,1.37
2023-03-29T01:05:14.444Z,1.37
2023-03-29T01:07:48.014Z,1.33
2023-03-29T01:10:19.259Z,1.57
2023-03-29T01:12:51.683Z,1.50
2023-03-29T01:15:21.334Z,1.30
2023-03-29T01:17:53.581Z,1.20
2023-03-29T01:20:24.564Z,1.50
2023-03-29T01:23:06.511Z,1.40
2023-03-29T01:25:42.175Z,1.40
2023-03-29T01:28:14.989Z,1.57
2023-03-29T01:30:49.318Z,1.50
2023-03-29T01:33:23.397Z,1.50
2023-03-29T01:35:58.242Z,1.23
2023-03-29T01:38:34.581Z,1.37
2023-03-29T01:41:04.355Z,1.20
2023-03-29T01:43:39.485Z,1.40
2023-03-29T01:46:12.323Z,1.40
2023-03-29T01:48:48.512Z,1.40
2023-03-29T01:51:20.189Z,1.47
2023-03-29T01:53:53.507Z,1.30
2023-03-29T01:56:24.865Z,1.20
2023-03-29T01:58:57.106Z,1.30
2023-03-29T02:01:29.988Z,1.30
2023-03-29T02:04:02.801Z,1.27
2023-03-29T02:06:33.676Z,1.40
2023-03-29T02:09:01.517Z,1.30
2023-03-29T02:11:29.724Z,1.20
2023-03-29T02:13:58.730Z,1.20
2023-03-29T02:16:26.205Z,1.23
2023-03-29T02:18:57.969Z,1.30
2023-03-29T02:21:30.690Z,1.20
2023-03-29T02:24:02.023Z,1.33
2023-03-29T02:26:29.690Z,1.30
2023-03-29T02:28:59.044Z,1.20
2023-03-29T02:31:33.841Z,1.20
2023-03-29T02:34:07.912Z,1.13
2023-03-29T02:36:41.484Z,1.20
2023-03-29T02:39:13.719Z,1.27
2023-03-29T02:41:44.006Z,1.40
2023-03-29T02:44:15.925Z,1.10
2023-03-29T02:46:44.240Z,1.20
2023-03-29T02:49:12.631Z,1.20
2023-03-29T02:51:40.243Z,1.30
2023-03-29T02:54:12.880Z,1.30
2023-03-29T02:56:44.614Z,1.33
2023-03-29T02:59:14.286Z,1.40
2023-03-29T03:01:42.690Z,1.40
2023-03-29T03:04:10.922Z,1.20
2023-03-29T03:06:39.331Z,1.40
2023-03-29T03:09:08.165Z,1.37
2023-03-29T03:11:35.739Z,1.50
2023-03-29T03:14:03.415Z,1.60
2023-03-29T03:16:32.402Z,1.20
2023-03-29T03:19:00.841Z,1.47
2023-03-29T03:21:28.976Z,1.60
2023-03-29T03:23:56.902Z,1.50
2023-03-29T03:26:30.208Z,1.40
2023-03-29T03:28:58.168Z,1.50
2023-03-29T03:31:26.155Z,1.40
2023-03-29T03:33:55.578Z,1.50
2023-03-29T03:36:25.960Z,1.67
2023-03-29T03:38:53.880Z,1.67
2023-03-29T03:41:21.512Z,1.50
2023-03-29T03:43:49.379Z,1.60
2023-03-29T03:46:17.435Z,1.50
2023-03-29T03:48:47.436Z,1.50
2023-03-29T03:51:16.306Z,1.70
2023-03-29T03:53:44.144Z,1.50
2023-03-29T03:56:13.762Z,1.50
2023-03-29T03:58:41.521Z,1.70
2023-03-29T04:01:09.850Z,1.40
2023-03-29T04:03:39.100Z,1.70
2023-03-29T04:06:07.372Z,1.60
2023-03-29T04:08:36.333Z,1.60
2023-03-29T04:11:04.538Z,1.70
2023-03-29T04:13:32.315Z,1.60
2023-03-29T04:16:01.756Z,1.57
2023-03-29T04:18:29.722Z,1.60
2023-03-29T04:20:57.348Z,1.80
2023-03-29T04:23:24.895Z,1.80
2023-03-29T04:25:56.826Z,1.67
2023-03-29T04:28:24.352Z,1.70
2023-03-29T04:30:52.251Z,1.60
2023-03-29T04:33:19.887Z,1.63
2023-03-29T04:35:47.686Z,1.50
2023-03-29T04:38:16.770Z,1.70
2023-03-29T04:40:44.873Z,1.50
2023-03-29T04:43:14.511Z,1.67
2023-03-29T04:45:42.196Z,1.60
2023-03-29T04:48:10.583Z,1.80
2023-03-29T04:50:38.204Z,1.70
2023-03-29T04:53:05.940Z,1.70
2023-03-29T04:55:33.423Z,1.67
2023-03-29T04:58:01.153Z,1.70
2023-03-29T05:00:31.543Z,1.53
2023-03-29T05:02:59.451Z,1.80
2023-03-29T05:05:27.792Z,1.67
2023-03-29T05:07:56.949Z,1.50
2023-03-29T05:10:24.806Z,1.67
2023-03-29T05:12:54.112Z,1.50
2023-03-29T05:15:22.486Z,1.40
2023-03-29T05:17:51.583Z,1.60
2023-03-29T05:20:19.201Z,1.63
2023-03-29T05:22:47.067Z,1.63
2023-03-29T05:25:14.661Z,1.70
2023-03-29T05:27:42.519Z,1.80
2023-03-29T05:30:11.537Z,1.90
2023-03-29T05:32:39.314Z,2.38
2023-03-29T05:35:09.141Z,1.87
2023-03-29T05:37:36.895Z,1.83
2023-03-29T05:40:09.968Z,2.10
2023-03-29T05:42:38.715Z,2.00
2023-03-29T05:45:07.427Z,2.00
2023-03-29T05:47:35.146Z,1.93
2023-03-29T05:50:02.635Z,1.93
2023-03-29T05:52:32.167Z,2.23
2023-03-29T05:54:59.711Z,2.37
2023-03-29T05:57:27.855Z,2.50
2023-03-29T05:59:56.497Z,2.90
2023-03-29T06:02:24.620Z,3.47
2023-03-29T06:04:53.867Z,3.50
2023-03-29T06:07:23.364Z,3.40
2023-03-29T06:09:52.243Z,3.50
2023-03-29T06:12:21.829Z,3.20
2023-03-29T06:14:49.352Z,3.20
2023-03-29T06:17:17.438Z,3.30
2023-03-29T06:19:45.387Z,3.07
2023-03-29T06:22:14.821Z,3.10
2023-03-29T06:24:42.665Z,3.13
2023-03-29T06:27:11.437Z,2.67
2023-03-29T06:29:38.933Z,2.60
2023-03-29T06:32:06.784Z,2.73
2023-03-29T06:34:35.578Z,2.60
2023-03-29T06:37:05.886Z,2.80
2023-03-29T06:39:34.275Z,2.37
2023-03-29T06:42:10.091Z,2.57
2023-03-29T06:44:46.629Z,2.60
2023-03-29T06:47:14.322Z,2.53
2023-03-29T06:49:43.175Z,2.87
2023-03-29T06:52:11.467Z,2.53
2023-03-29T06:54:39.274Z,2.67
2023-03-29T06:57:07.810Z,2.57
2023-03-29T06:59:35.718Z,2.63
2023-03-29T07:02:05.264Z,2.47
2023-03-29T07:04:33.231Z,2.57
2023-03-29T07:07:02.471Z,2.40
2023-03-29T07:09:30.977Z,2.50
2023-03-29T07:11:59.196Z,2.50
2023-03-29T07:14:29.907Z,2.60
2023-03-29T07:16:58.752Z,2.60
2023-03-29T07:19:30.050Z,2.70
2023-03-29T07:21:58.776Z,2.63
2023-03-29T07:24:26.415Z,2.50
2023-03-29T07:27:03.377Z,2.30
2023-03-29T07:29:31.879Z,2.60
2023-03-29T07:32:00.110Z,2.40
2023-03-29T07:34:29.925Z,2.57
2023-03-29T07:36:57.681Z,2.30
2023-03-29T07:39:26.048Z,2.50
2023-03-29T07:41:53.795Z,2.60
2023-03-29T07:44:21.519Z,2.50
2023-03-29T07:46:49.492Z,2.70
2023-03-29T07:49:17.136Z,2.60
2023-03-29T07:51:45.950Z,2.60
2023-03-29T07:54:13.852Z,2.43
2023-03-29T07:56:41.472Z,2.80
2023-03-29T07:59:09.204Z,2.50
2023-03-29T08:01:36.722Z,2.60
2023-03-29T08:04:04.758Z,2.60
2023-03-29T08:06:32.450Z,2.40
2023-03-29T08:09:01.371Z,2.63
2023-03-29T08:11:28.879Z,2.40
2023-03-29T08:13:56.547Z,2.50
2023-03-29T08:16:24.068Z,2.53
2023-03-29T08:18:51.837Z,2.63
2023-03-29T08:21:19.378Z,2.73
2023-03-29T08:23:47.036Z,2.40
2023-03-29T08:26:16.009Z,2.87
2023-03-29T08:28:43.804Z,2.90
2023-03-29T08:31:12.672Z,3.03
2023-03-29T08:33:41.126Z,2.60
2023-03-29T08:36:10.043Z,2.63
2023-03-29T08:38:37.811Z,2.37
2023-03-29T08:41:21.021Z,2.67
2023-03-29T08:44:07.979Z,2.67
2023-03-29T08:46:45.325Z,2.60
2023-03-29T08:49:16.098Z,2.50
2023-03-29T08:51:47.048Z,2.77
2023-03-29T08:54:18.398Z,2.60
2023-03-29T08:56:47.750Z,2.53
2023-03-29T08:59:22.878Z,2.80
2023-03-29T09:01:54.885Z,2.73
2023-03-29T09:04:27.030Z,2.77
2023-03-29T09:06:55.212Z,2.60
2023-03-29T09:09:29.219Z,2.70
2023-03-29T09:12:07.461Z,2.80
2023-03-29T09:14:48.553Z,2.83
2023-03-29T09:17:29.687Z,2.80
2023-03-29T09:20:06.356Z,2.60
2023-03-29T09:22:43.422Z,2.60
2023-03-29T09:25:21.380Z,2.40
2023-03-29T09:27:50.760Z,2.40
2023-03-29T09:30:26.245Z,2.60
2023-03-29T09:32:55.277Z,2.60
2023-03-29T09:35:26.131Z,2.33
2023-03-29T09:37:55.223Z,2.60
2023-03-29T09:40:27.199Z,2.60
2023-03-29T09:42:56.837Z,2.40
2023-03-29T09:45:25.896Z,2.33
2023-03-29T09:47:57.753Z,2.60
2023-03-29T09:50:32.367Z,2.73
2023-03-29T09:53:00.630Z,2.47
2023-03-29T09:55:31.059Z,2.77
2023-03-29T09:58:01.750Z,3.33
2023-03-29T10:00:30.998Z,2.83
2023-03-29T10:03:00.143Z,2.63
2023-03-29T10:05:32.087Z,2.83
2023-03-29T10:08:02.041Z,2.80
2023-03-29T10:10:31.862Z,3.00
2023-03-29T10:13:02.464Z,2.93
2023-03-29T10:15:31.983Z,2.83
2023-03-29T10:18:01.039Z,3.03
2023-03-29T10:20:28.991Z,2.97
2023-03-29T10:22:58.513Z,2.90
2023-03-29T10:25:28.936Z,3.27
2023-03-29T10:28:03.781Z,3.17
2023-03-29T10:30:35.946Z,3.03
2023-03-29T10:33:03.840Z,3.10
2023-03-29T10:35:35.751Z,3.10
2023-03-29T10:38:06.463Z,2.93
2023-03-29T10:40:36.694Z,3.27
2023-03-29T10:43:14.415Z,3.47
2023-03-29T10:45:43.829Z,3.00
2023-03-29T10:48:14.700Z,2.97
2023-03-29T10:50:43.123Z,2.80
2023-03-29T10:53:17.511Z,3.20
2023-03-29T10:55:55.413Z,3.20
2023-03-29T10:58:37.633Z,3.10
2023-03-29T11:01:12.057Z,3.10
2023-03-29T11:03:53.820Z,3.23
2023-03-29T11:06:27.929Z,2.83
2023-03-29T11:08:59.487Z,2.80
2023-03-29T11:11:43.962Z,2.97
2023-03-29T11:14:18.175Z,2.93
2023-03-29T11:16:56.864Z,2.90
2023-03-29T11:19:45.644Z,2.80
2023-03-29T11:22:20.983Z,3.00
2023-03-29T11:25:06.282Z,2.93
2023-03-29T11:27:39.942Z,3.00
2023-03-29T11:30:17.903Z,2.87
2023-03-29T11:32:55.918Z,2.97
2023-03-29T11:35:32.592Z,2.70
2023-03-29T11:38:06.789Z,2.90
2023-03-29T11:40:45.808Z,3.00
2023-03-29T11:43:20.409Z,2.73
2023-03-29T11:45:53.023Z,2.40
2023-03-29T11:48:26.135Z,2.73
2023-03-29T11:50:58.612Z,2.60
2023-03-29T11:53:32.264Z,2.80
2023-03-29T11:56:10.193Z,2.83
2023-03-29T11:58:41.216Z,2.70
2023-03-29T12:01:14.269Z,2.43
2023-03-29T12:03:47.542Z,2.40
2023-03-29T12:06:21.403Z,2.80
2023-03-29T12:08:55.134Z,2.70
2023-03-29T12:11:29.549Z,2.80
2023-03-29T12:14:01.004Z,2.87
2023-03-29T12:16:33.421Z,2.90
2023-03-29T12:19:07.899Z,2.60
2023-03-29T12:21:37.249Z,2.40
2023-03-29T12:24:05.159Z,2.70
2023-03-29T12:26:50.719Z,2.80
2023-03-29T12:29:39.916Z,2.70
2023-03-29T12:32:25.739Z,2.77
2023-03-29T12:35:08.565Z,2.70
2023-03-29T12:37:47.078Z,2.70
2023-03-29T12:40:17.399Z,2.60
2023-03-29T12:42:47.461Z,2.57
2023-03-29T12:45:20.783Z,2.67
2023-03-29T12:47:51.461Z,2.55
2023-03-29T12:50:29.553Z,2.58
2023-03-29T13:14:22.218Z,2.80
2023-03-29T13:16:49.822Z,2.88
2023-03-29T13:19:32.043Z,3.07
2023-03-29T13:22:14.544Z,3.07
2023-03-29T13:24:59.966Z,3.40
2023-03-29T13:27:39.450Z,2.80
2023-03-29T13:30:20.718Z,2.87
2023-03-29T13:32:56.083Z,3.00
2023-03-29T13:35:35.307Z,2.80
2023-03-29T13:38:14.323Z,2.90
2023-03-29T13:40:48.456Z,3.03
2023-03-29T13:43:23.439Z,2.73
2023-03-29T13:46:07.728Z,2.70
2023-03-29T13:48:52.728Z,2.70
2023-03-29T13:58:14.441Z,2.70
2023-03-29T14:08:19.616Z,2.60
2023-03-29T14:10:49.385Z,2.50
2023-03-29T14:13:20.429Z,2.57
2023-03-29T14:15:56.172Z,2.50
2023-03-29T14:18:30.530Z,2.43
2023-03-29T14:21:01.258Z,2.50
2023-03-29T14:23:33.286Z,3.03
2023-03-29T14:26:18.252Z,2.73
2023-03-29T14:29:14.601Z,2.80
2023-03-29T14:31:45.059Z,2.80
2023-03-29T14:34:15.284Z,2.73
2023-03-29T14:36:59.704Z,2.73
2023-03-29T14:41:08.684Z,2.80
2023-03-29T14:44:16.433Z,2.80
2023-03-29T14:47:35.180Z,2.37
2023-03-29T15:29:24.184Z,2.70
2023-03-29T15:31:56.162Z,2.93
2023-03-29T15:34:27.114Z,2.90
2023-03-29T15:36:55.085Z,2.93
2023-03-29T15:39:22.828Z,2.97
2023-03-29T15:41:52.622Z,3.20
2023-03-29T15:44:27.169Z,2.80
2023-03-29T15:46:57.445Z,2.77
2023-03-29T15:49:25.862Z,2.90
2023-03-29T15:51:54.167Z,2.83
2023-03-29T15:54:22.220Z,2.80
2023-03-29T15:56:52.743Z,2.70
2023-03-29T15:59:20.814Z,2.50
2023-03-29T16:01:50.083Z,2.40
2023-03-29T16:04:19.737Z,2.70
2023-03-29T16:06:49.456Z,2.60
2023-03-29T16:09:17.612Z,2.50
2023-03-29T16:11:46.708Z,2.80
2023-03-29T16:14:20.763Z,2.53
2023-03-29T16:16:49.751Z,2.67
2023-03-29T16:19:17.252Z,2.43
2023-03-29T16:21:45.358Z,2.77
2023-03-29T16:24:15.167Z,2.60
2023-03-29T16:26:43.169Z,2.60
2023-03-29T16:29:11.030Z,2.70
2023-03-29T16:31:38.970Z,2.40
2023-03-29T16:34:09.153Z,2.67
2023-03-29T16:36:36.650Z,2.70
2023-03-29T16:39:05.440Z,2.67
2023-03-29T16:41:33.548Z,2.67
2023-03-29T16:44:01.112Z,2.70
2023-03-29T16:46:28.622Z,2.50
2023-03-29T16:48:57.838Z,2.50
2023-03-29T16:51:27.144Z,2.43
2023-03-29T16:53:54.635Z,2.20
2023-03-29T16:56:22.675Z,2.40
2023-03-29T16:58:50.136Z,2.17
2023-03-29T17:01:19.396Z,2.50
2023-03-29T17:03:47.252Z,2.23
2023-03-29T17:06:14.781Z,2.30
2023-03-29T17:08:43.555Z,2.27
2023-03-29T17:11:11.614Z,2.30
2023-03-29T17:13:40.294Z,2.30
2023-03-29T17:16:08.629Z,2.33
2023-03-29T17:18:36.321Z,2.30
2023-03-29T17:21:04.035Z,2.17
2023-03-29T17:23:31.481Z,2.10
2023-03-29T17:26:00.480Z,2.10
2023-03-29T17:28:28.306Z,2.27
2023-03-29T17:30:55.918Z,2.00
2023-03-29T17:33:26.016Z,2.20
2023-03-29T17:35:53.661Z,2.00
2023-03-29T17:38:21.185Z,1.83
2023-03-29T17:40:53.159Z,1.90
2023-03-29T17:43:22.324Z,2.00
2023-03-29T17:45:51.614Z,1.87
2023-03-29T17:48:19.645Z,1.97
2023-03-29T17:50:47.302Z,1.97
2023-03-29T17:53:14.826Z,2.07
2023-03-29T17:55:42.470Z,2.13
2023-03-29T17:58:09.944Z,2.03
2023-03-29T18:00:38.808Z,2.07
2023-03-29T18:03:06.610Z,1.90
2023-03-29T18:05:35.544Z,1.80
2023-03-29T18:08:03.083Z,1.90
2023-03-29T18:10:30.904Z,1.90
2023-03-29T18:12:58.414Z,2.10
2023-03-29T18:15:26.023Z,2.00
2023-03-29T18:17:54.867Z,2.00
2023-03-29T18:20:22.559Z,2.13
2023-03-29T18:22:50.025Z,2.20
2023-03-29T18:25:18.257Z,2.20
2023-03-29T18:27:45.809Z,1.90
2023-03-29T18:30:16.492Z,1.87
2023-03-29T18:32:44.014Z,1.87
2023-03-29T18:35:12.910Z,2.17
2023-03-29T18:37:40.400Z,2.50
2023-03-29T18:40:09.858Z,2.40
2023-03-29T18:42:37.668Z,2.40
2023-03-29T18:45:06.276Z,2.27
2023-03-29T18:47:33.963Z,2.20
2023-03-29T18:50:02.555Z,2.27
2023-03-29T18:52:31.365Z,2.60
2023-03-29T18:54:58.850Z,2.30
2023-03-29T18:57:26.378Z,2.33
2023-03-29T18:59:53.833Z,2.50
2023-03-29T19:02:21.403Z,2.17
2023-03-29T19:04:48.933Z,2.10
2023-03-29T19:07:17.652Z,2.10
2023-03-29T19:09:46.525Z,2.20
2023-03-29T19:12:13.997Z,2.30
2023-03-29T19:14:41.472Z,2.37
2023-03-29T19:17:08.911Z,2.30
2023-03-29T19:19:37.707Z,2.37
2023-03-29T19:22:05.256Z,2.13
2023-03-29T19:24:32.718Z,2.33
2023-03-29T19:27:01.748Z,2.30
2023-03-29T19:29:29.293Z,1.97
2023-03-29T19:31:57.119Z,2.10
2023-03-29T19:34:24.691Z,2.03
2023-03-29T19:36:53.380Z,2.17
2023-03-29T19:39:20.985Z,2.00
2023-03-29T19:41:48.536Z,2.23
2023-03-29T19:44:17.371Z,2.07
2023-03-29T19:46:44.886Z,2.10
2023-03-29T19:49:13.466Z,2.00
2023-03-29T19:51:40.990Z,2.20
2023-03-29T19:54:08.614Z,2.03
2023-03-29T19:56:36.150Z,2.10
2023-03-29T19:59:03.618Z,2.07
2023-03-29T20:01:33.575Z,2.27
2023-03-29T20:04:01.700Z,2.10
2023-03-29T20:06:29.210Z,2.30
2023-03-29T20:08:57.593Z,2.20
2023-03-29T20:11:25.080Z,2.30
2023-03-29T20:13:52.617Z,2.20
2023-03-29T20:16:24.134Z,2.60
2023-03-29T20:18:54.654Z,2.40
2023-03-29T20:21:22.104Z,2.40
2023-03-29T20:23:49.599Z,2.40
2023-03-29T20:26:17.321Z,2.17
2023-03-29T20:28:44.933Z,2.30
2023-03-29T20:31:13.029Z,2.37
2023-03-29T20:33:42.205Z,2.50
2023-03-29T20:36:11.483Z,2.30
2023-03-29T20:38:39.354Z,2.23
2023-03-29T20:41:08.829Z,2.30
2023-03-29T20:43:38.084Z,2.40
2023-03-29T20:46:14.191Z,2.30
2023-03-29T20:48:45.726Z,2.13
2023-03-29T20:51:14.998Z,2.00
2023-03-29T20:53:44.353Z,2.40
2023-03-29T20:56:13.006Z,2.00
2023-03-29T20:58:42.167Z,2.20
2023-03-29T21:01:09.937Z,2.43
2023-03-29T21:03:37.963Z,2.43
2023-03-29T21:06:05.779Z,2.53
2023-03-29T21:08:34.581Z,2.17
2023-03-29T21:11:02.346Z,2.20
2023-03-29T21:13:35.696Z,2.30
2023-03-29T21:16:05.024Z,2.30
2023-03-29T21:18:32.586Z,2.37
2023-03-29T21:21:00.025Z,2.13
2023-03-29T21:23:27.490Z,2.00
2023-03-29T21:25:56.626Z,2.47
2023-03-29T21:28:24.093Z,2.30
2023-03-29T21:30:51.554Z,2.37
2023-03-29T21:33:19.019Z,2.20
2023-03-29T21:35:48.346Z,2.30
2023-03-29T21:38:16.628Z,2.70
2023-03-29T21:40:44.109Z,2.60
2023-03-29T21:43:13.008Z,2.37
2023-03-29T21:45:40.512Z,2.70
2023-03-29T21:48:08.260Z,2.57
2023-03-29T21:50:35.983Z,2.40
2023-03-29T21:53:03.462Z,2.80
2023-03-29T21:55:30.953Z,2.53
2023-03-29T21:57:58.437Z,2.60
2023-03-29T22:00:27.488Z,2.60
2023-03-29T22:02:54.947Z,2.53
2023-03-29T22:05:22.414Z,2.70
2023-03-29T22:07:50.938Z,2.70
2023-03-29T22:10:22.550Z,2.80
2023-03-29T22:12:50.705Z,2.50
2023-03-29T22:15:20.513Z,2.60
2023-03-29T22:17:50.356Z,2.53
2023-03-29T22:20:18.479Z,2.90
2023-03-29T22:22:49.624Z,2.80
2023-03-29T22:25:18.428Z,2.67
2023-03-29T22:27:47.999Z,2.77
2023-03-29T22:30:16.948Z,2.80
2023-03-29T22:32:44.471Z,3.00
2023-03-29T22:35:13.284Z,2.93
2023-03-29T22:37:42.733Z,3.03
2023-03-29T22:40:12.185Z,2.60
2023-03-29T22:42:39.699Z,2.70
2023-03-29T22:45:08.857Z,2.80
2023-03-29T22:47:36.386Z,2.60
2023-03-29T22:50:04.225Z,2.50
2023-03-29T22:52:33.043Z,2.40
2023-03-29T22:55:00.509Z,2.70
2023-03-29T22:57:28.051Z,2.47
2023-03-29T22:59:55.626Z,2.50
2023-03-29T23:02:23.109Z,2.67
2023-03-29T23:04:50.703Z,2.60
2023-03-29T23:07:18.167Z,2.70
2023-03-29T23:09:47.078Z,2.43
2023-03-29T23:12:14.544Z,2.50
2023-03-29T23:14:45.156Z,2.80
2023-03-29T23:17:13.354Z,2.70
2023-03-29T23:19:41.497Z,2.70
2023-03-29T23:22:08.965Z,2.60
2023-03-29T23:24:36.412Z,2.30
2023-03-29T23:27:05.519Z,1.80
2023-03-29T23:29:34.435Z,2.10
2023-03-29T23:32:01.928Z,2.07
2023-03-29T23:34:29.464Z,1.90
2023-03-29T23:36:57.051Z,1.67
2023-03-29T23:39:25.009Z,1.80
2023-03-29T23:41:52.701Z,1.90
2023-03-29T23:44:21.532Z,1.80
2023-03-29T23:46:49.180Z,2.03
2023-03-29T23:49:17.108Z,1.90
2023-03-29T23:51:44.868Z,1.70
2023-03-29T23:54:12.904Z,2.00
2023-03-29T23:56:40.451Z,1.97
2023-03-29T23:59:07.908Z,1.80
